sensor_id;sensor_type;location;lat;lon;timestamp;temperature;humidity
10911;DHT22;5508;49.150;11.030;2023-04-06T00:01:55;-4.00;96.60
10911;DHT22;5508;49.150;11.030;2023-04-06T00:04:56;-4.00;97.60
10911;DHT22;5508;49.150;11.030;2023-04-06T00:07:59;-4.10;98.20
10911;DHT22;5508;49.150;11.030;2023-04-06T00:11:00;-4.10;97.90
10911;DHT22;5508;49.150;11.030;2023-04-06T00:14:00;-4.20;97.00
10911;DHT22;5508;49.150;11.030;2023-04-06T00:17:01;-4.20;98.80
10911;DHT22;5508;49.150;11.030;2023-04-06T00:20:02;-4.20;99.10
10911;DHT22;5508;49.150;11.030;2023-04-06T00:23:03;-4.20;99.40
10911;DHT22;5508;49.150;11.030;2023-04-06T00:26:04;-4.20;99.40
10911;DHT22;5508;49.150;11.030;2023-04-06T00:29:04;-4.30;99.90
10911;DHT22;5508;49.150;11.030;2023-04-06T00:32:05;-4.30;99.90
10911;DHT22;5508;49.150;11.030;2023-04-06T00:35:06;-4.20;98.60
10911;DHT22;5508;49.150;11.030;2023-04-06T00:38:06;-4.20;97.80
10911;DHT22;5508;49.150;11.030;2023-04-06T00:41:07;-4.20;99.70
10911;DHT22;5508;49.150;11.030;2023-04-06T00:44:07;-4.30;99.90
10911;DHT22;5508;49.150;11.030;2023-04-06T00:47:08;-4.40;99.40
10911;DHT22;5508;49.150;11.030;2023-04-06T00:50:09;-4.40;99.90
10911;DHT22;5508;49.150;11.030;2023-04-06T00:53:10;-4.40;99.90
10911;DHT22;5508;49.150;11.030;2023-04-06T00:56:10;-4.40;99.90
10911;DHT22;5508;49.150;11.030;2023-04-06T00:59:11;-4.50;99.90
10911;DHT22;5508;49.150;11.030;2023-04-06T01:02:12;-4.50;99.90
10911;DHT22;5508;49.150;11.030;2023-04-06T01:05:13;-4.50;99.90
10911;DHT22;5508;49.150;11.030;2023-04-06T01:08:14;-4.50;99.90
10911;DHT22;5508;49.150;11.030;2023-04-06T01:11:14;-4.50;99.90
10911;DHT22;5508;49.150;11.030;2023-04-06T01:14:15;-4.60;99.90
10911;DHT22;5508;49.150;11.030;2023-04-06T01:17:16;-4.60;99.90
10911;DHT22;5508;49.150;11.030;2023-04-06T01:20:16;-4.70;99.90
10911;DHT22;5508;49.150;11.030;2023-04-06T01:23:17;-4.70;99.90
10911;DHT22;5508;49.150;11.030;2023-04-06T01:26:18;-4.70;99.90
10911;DHT22;5508;49.150;11.030;2023-04-06T01:29:18;-4.70;99.90
10911;DHT22;5508;49.150;11.030;2023-04-06T01:32:19;-4.70;99.90
10911;DHT22;5508;49.150;11.030;2023-04-06T01:35:20;-4.80;99.90
10911;DHT22;5508;49.150;11.030;2023-04-06T01:38:21;-4.80;99.90
10911;DHT22;5508;49.150;11.030;2023-04-06T01:41:21;-4.80;99.90
10911;DHT22;5508;49.150;11.030;2023-04-06T01:44:22;-4.80;99.90
10911;DHT22;5508;49.150;11.030;2023-04-06T01:47:22;-4.80;99.90
10911;DHT22;5508;49.150;11.030;2023-04-06T01:50:23;-4.80;99.90
10911;DHT22;5508;49.150;11.030;2023-04-06T01:53:23;-4.90;99.90
10911;DHT22;5508;49.150;11.030;2023-04-06T01:56:24;-4.90;99.90
10911;DHT22;5508;49.150;11.030;2023-04-06T01:59:25;-5.00;99.90
10911;DHT22;5508;49.150;11.030;2023-04-06T02:02:26;-5.00;99.90
10911;DHT22;5508;49.150;11.030;2023-04-06T02:05:28;-5.00;99.90
10911;DHT22;5508;49.150;11.030;2023-04-06T02:08:29;-5.00;99.90
10911;DHT22;5508;49.150;11.030;2023-04-06T02:11:29;-5.10;99.90
10911;DHT22;5508;49.150;11.030;2023-04-06T02:14:30;-5.00;99.90
10911;DHT22;5508;49.150;11.030;2023-04-06T02:17:31;-5.00;99.90
10911;DHT22;5508;49.150;11.030;2023-04-06T02:20:31;-5.00;99.90
10911;DHT22;5508;49.150;11.030;2023-04-06T02:23:32;-5.10;99.90
10911;DHT22;5508;49.150;11.030;2023-04-06T02:26:32;-5.00;99.90
10911;DHT22;5508;49.150;11.030;2023-04-06T02:29:33;-5.10;99.90
10911;DHT22;5508;49.150;11.030;2023-04-06T02:32:34;-5.10;99.90
10911;DHT22;5508;49.150;11.030;2023-04-06T02:35:34;-5.20;99.90
10911;DHT22;5508;49.150;11.030;2023-04-06T02:38:35;-5.20;99.90
10911;DHT22;5508;49.150;11.030;2023-04-06T02:41:36;-5.30;99.90
10911;DHT22;5508;49.150;11.030;2023-04-06T02:44:36;-5.30;99.90
10911;DHT22;5508;49.150;11.030;2023-04-06T02:47:37;-5.30;99.90
10911;DHT22;5508;49.150;11.030;2023-04-06T02:50:37;-5.20;99.90
10911;DHT22;5508;49.150;11.030;2023-04-06T02:53:38;-5.20;99.90
10911;DHT22;5508;49.150;11.030;2023-04-06T02:56:38;-5.30;99.90
10911;DHT22;5508;49.150;11.030;2023-04-06T02:59:39;-5.20;99.90
10911;DHT22;5508;49.150;11.030;2023-04-06T03:02:39;-5.20;99.90
10911;DHT22;5508;49.150;11.030;2023-04-06T03:05:40;-5.00;99.90
10911;DHT22;5508;49.150;11.030;2023-04-06T03:08:41;-5.00;99.90
10911;DHT22;5508;49.150;11.030;2023-04-06T03:11:41;-5.10;99.90
10911;DHT22;5508;49.150;11.030;2023-04-06T03:14:42;-5.00;99.90
10911;DHT22;5508;49.150;11.030;2023-04-06T03:17:42;-5.00;99.90
10911;DHT22;5508;49.150;11.030;2023-04-06T03:20:43;-4.90;99.90
10911;DHT22;5508;49.150;11.030;2023-04-06T03:23:43;-4.90;99.90
10911;DHT22;5508;49.150;11.030;2023-04-06T03:26:44;-4.80;99.90
10911;DHT22;5508;49.150;11.030;2023-04-06T03:29:45;-4.70;99.90
10911;DHT22;5508;49.150;11.030;2023-04-06T03:32:46;-4.70;99.90
10911;DHT22;5508;49.150;11.030;2023-04-06T03:35:46;-4.80;99.90
10911;DHT22;5508;49.150;11.030;2023-04-06T03:38:47;-4.70;99.90
10911;DHT22;5508;49.150;11.030;2023-04-06T03:41:47;-4.70;99.90
10911;DHT22;5508;49.150;11.030;2023-04-06T03:44:48;-4.80;99.90
10911;DHT22;5508;49.150;11.030;2023-04-06T03:47:48;-4.80;99.90
10911;DHT22;5508;49.150;11.030;2023-04-06T03:50:49;-4.70;99.90
10911;DHT22;5508;49.150;11.030;2023-04-06T03:53:50;-4.80;99.90
10911;DHT22;5508;49.150;11.030;2023-04-06T03:56:50;-4.80;99.90
10911;DHT22;5508;49.150;11.030;2023-04-06T03:59:51;-4.80;99.90
10911;DHT22;5508;49.150;11.030;2023-04-06T04:02:51;-4.90;99.90
10911;DHT22;5508;49.150;11.030;2023-04-06T04:05:52;-4.90;99.90
10911;DHT22;5508;49.150;11.030;2023-04-06T04:08:52;-4.90;99.90
10911;DHT22;5508;49.150;11.030;2023-04-06T04:11:53;-5.00;99.90
10911;DHT22;5508;49.150;11.030;2023-04-06T04:14:53;-5.00;99.90
10911;DHT22;5508;49.150;11.030;2023-04-06T04:17:54;-5.00;99.90
10911;DHT22;5508;49.150;11.030;2023-04-06T04:20:55;-4.90;99.90
10911;DHT22;5508;49.150;11.030;2023-04-06T04:23:55;-5.10;99.90
10911;DHT22;5508;49.150;11.030;2023-04-06T04:26:56;-5.10;99.90
10911;DHT22;5508;49.150;11.030;2023-04-06T04:29:56;-5.20;99.90
10911;DHT22;5508;49.150;11.030;2023-04-06T04:32:57;-5.30;99.90
10911;DHT22;5508;49.150;11.030;2023-04-06T04:35:58;-5.30;99.90
10911;DHT22;5508;49.150;11.030;2023-04-06T04:38:58;-5.40;99.90
10911;DHT22;5508;49.150;11.030;2023-04-06T04:42:01;-5.50;99.90
10911;DHT22;5508;49.150;11.030;2023-04-06T04:45:02;-5.50;99.90
10911;DHT22;5508;49.150;11.030;2023-04-06T04:48:02;-5.60;99.90
10911;DHT22;5508;49.150;11.030;2023-04-06T04:51:05;-5.60;99.90
10911;DHT22;5508;49.150;11.030;2023-04-06T04:54:06;-5.60;99.90
10911;DHT22;5508;49.150;11.030;2023-04-06T04:57:06;-5.60;99.90
10911;DHT22;5508;49.150;11.030;2023-04-06T05:00:07;-5.60;99.90
10911;DHT22;5508;49.150;11.030;2023-04-06T05:03:08;-5.60;99.90
10911;DHT22;5508;49.150;11.030;2023-04-06T05:06:09;-5.60;99.90
10911;DHT22;5508;49.150;11.030;2023-04-06T05:09:11;-5.60;99.90
10911;DHT22;5508;49.150;11.030;2023-04-06T05:12:11;-5.50;99.90
10911;DHT22;5508;49.150;11.030;2023-04-06T05:15:12;-5.50;99.90
10911;DHT22;5508;49.150;11.030;2023-04-06T05:18:13;-5.50;99.90
10911;DHT22;5508;49.150;11.030;2023-04-06T05:21:14;-5.40;99.90
10911;DHT22;5508;49.150;11.030;2023-04-06T05:24:14;-5.40;99.90
10911;DHT22;5508;49.150;11.030;2023-04-06T05:27:15;-5.30;99.90
10911;DHT22;5508;49.150;11.030;2023-04-06T05:30:16;-5.10;99.90
10911;DHT22;5508;49.150;11.030;2023-04-06T05:33:16;-5.10;99.90
10911;DHT22;5508;49.150;11.030;2023-04-06T05:36:17;-4.90;99.90
10911;DHT22;5508;49.150;11.030;2023-04-06T05:39:18;-4.80;99.90
10911;DHT22;5508;49.150;11.030;2023-04-06T05:42:18;-4.70;99.90
10911;DHT22;5508;49.150;11.030;2023-04-06T05:45:19;-4.60;99.90
10911;DHT22;5508;49.150;11.030;2023-04-06T05:48:20;-4.50;99.90
10911;DHT22;5508;49.150;11.030;2023-04-06T05:51:21;-4.30;99.90
10911;DHT22;5508;49.150;11.030;2023-04-06T05:54:21;-4.10;99.90
10911;DHT22;5508;49.150;11.030;2023-04-06T05:57:22;-4.00;99.90
10911;DHT22;5508;49.150;11.030;2023-04-06T06:00:23;-3.90;99.90
10911;DHT22;5508;49.150;11.030;2023-04-06T06:03:23;-3.70;99.90
10911;DHT22;5508;49.150;11.030;2023-04-06T06:06:24;-3.50;99.90
10911;DHT22;5508;49.150;11.030;2023-04-06T06:09:26;-3.30;99.90
10911;DHT22;5508;49.150;11.030;2023-04-06T06:12:27;-3.10;98.60
10911;DHT22;5508;49.150;11.030;2023-04-06T06:15:27;-3.00;98.10
10911;DHT22;5508;49.150;11.030;2023-04-06T06:18:28;-2.70;98.90
10911;DHT22;5508;49.150;11.030;2023-04-06T06:21:28;-2.50;97.00
10911;DHT22;5508;49.150;11.030;2023-04-06T06:24:29;-2.40;96.60
10911;DHT22;5508;49.150;11.030;2023-04-06T06:27:31;-2.30;97.60
10911;DHT22;5508;49.150;11.030;2023-04-06T06:30:32;-2.20;97.30
10911;DHT22;5508;49.150;11.030;2023-04-06T06:33:32;-2.00;97.50
10911;DHT22;5508;49.150;11.030;2023-04-06T06:36:33;-1.90;96.70
10911;DHT22;5508;49.150;11.030;2023-04-06T06:39:33;-1.70;96.70
10911;DHT22;5508;49.150;11.030;2023-04-06T06:42:34;-1.50;96.80
10911;DHT22;5508;49.150;11.030;2023-04-06T06:45:35;-1.20;96.70
10911;DHT22;5508;49.150;11.030;2023-04-06T06:48:35;-1.10;94.30
10911;DHT22;5508;49.150;11.030;2023-04-06T06:51:36;-0.90;91.30
10911;DHT22;5508;49.150;11.030;2023-04-06T06:54:37;-0.60;89.70
10911;DHT22;5508;49.150;11.030;2023-04-06T06:57:37;-0.30;86.50
10911;DHT22;5508;49.150;11.030;2023-04-06T07:00:38;-0.10;85.30
10911;DHT22;5508;49.150;11.030;2023-04-06T07:03:39;0.20;80.30
10911;DHT22;5508;49.150;11.030;2023-04-06T07:06:39;0.40;78.50
10911;DHT22;5508;49.150;11.030;2023-04-06T07:09:40;0.60;78.90
10911;DHT22;5508;49.150;11.030;2023-04-06T07:12:41;0.90;77.00
10911;DHT22;5508;49.150;11.030;2023-04-06T07:15:41;1.00;75.50
10911;DHT22;5508;49.150;11.030;2023-04-06T07:18:42;1.30;73.50
10911;DHT22;5508;49.150;11.030;2023-04-06T07:21:42;1.60;73.00
10911;DHT22;5508;49.150;11.030;2023-04-06T07:24:43;1.80;73.30
10911;DHT22;5508;49.150;11.030;2023-04-06T07:27:44;2.00;71.10
10911;DHT22;5508;49.150;11.030;2023-04-06T07:30:44;2.30;69.70
10911;DHT22;5508;49.150;11.030;2023-04-06T07:33:45;2.50;70.60
10911;DHT22;5508;49.150;11.030;2023-04-06T07:36:47;2.80;70.90
10911;DHT22;5508;49.150;11.030;2023-04-06T07:39:48;3.10;67.20
10911;DHT22;5508;49.150;11.030;2023-04-06T07:42:48;3.40;66.40
10911;DHT22;5508;49.150;11.030;2023-04-06T07:45:49;3.60;64.00
10911;DHT22;5508;49.150;11.030;2023-04-06T07:48:49;3.90;64.50
10911;DHT22;5508;49.150;11.030;2023-04-06T07:51:51;4.10;63.00
10911;DHT22;5508;49.150;11.030;2023-04-06T07:54:52;4.40;63.30
10911;DHT22;5508;49.150;11.030;2023-04-06T07:57:52;4.70;62.10
10911;DHT22;5508;49.150;11.030;2023-04-06T08:00:53;5.00;61.40
10911;DHT22;5508;49.150;11.030;2023-04-06T08:03:56;4.90;57.10
10911;DHT22;5508;49.150;11.030;2023-04-06T08:06:57;5.00;58.30
10911;DHT22;5508;49.150;11.030;2023-04-06T08:09:57;5.20;55.50
10911;DHT22;5508;49.150;11.030;2023-04-06T08:12:58;5.40;56.80
10911;DHT22;5508;49.150;11.030;2023-04-06T08:15:59;5.50;55.70
10911;DHT22;5508;49.150;11.030;2023-04-06T08:19:00;5.80;52.60
10911;DHT22;5508;49.150;11.030;2023-04-06T08:22:01;5.90;54.60
10911;DHT22;5508;49.150;11.030;2023-04-06T08:25:03;6.20;51.70
10911;DHT22;5508;49.150;11.030;2023-04-06T08:28:04;6.80;55.60
10911;DHT22;5508;49.150;11.030;2023-04-06T08:31:05;7.00;48.90
10911;DHT22;5508;49.150;11.030;2023-04-06T08:34:06;6.70;50.70
10911;DHT22;5508;49.150;11.030;2023-04-06T08:37:07;6.70;50.30
10911;DHT22;5508;49.150;11.030;2023-04-06T08:40:08;6.80;51.60
10911;DHT22;5508;49.150;11.030;2023-04-06T08:43:13;7.20;51.10
10911;DHT22;5508;49.150;11.030;2023-04-06T08:46:14;7.60;49.50
10911;DHT22;5508;49.150;11.030;2023-04-06T08:49:15;8.30;44.60
10911;DHT22;5508;49.150;11.030;2023-04-06T08:52:18;8.30;46.60
10911;DHT22;5508;49.150;11.030;2023-04-06T08:55:19;8.10;45.80
10911;DHT22;5508;49.150;11.030;2023-04-06T08:58:20;8.20;47.80
10911;DHT22;5508;49.150;11.030;2023-04-06T09:01:25;7.90;45.20
10911;DHT22;5508;49.150;11.030;2023-04-06T09:04:26;7.90;46.90
10911;DHT22;5508;49.150;11.030;2023-04-06T09:07:27;8.00;45.70
10911;DHT22;5508;49.150;11.030;2023-04-06T09:10:29;8.10;44.60
10911;DHT22;5508;49.150;11.030;2023-04-06T09:13:30;8.00;46.90
10911;DHT22;5508;49.150;11.030;2023-04-06T09:16:42;8.10;45.60
10911;DHT22;5508;49.150;11.030;2023-04-06T09:19:47;8.60;44.20
10911;DHT22;5508;49.150;11.030;2023-04-06T09:22:48;8.50;40.20
10911;DHT22;5508;49.150;11.030;2023-04-06T09:25:49;9.00;45.00
10911;DHT22;5508;49.150;11.030;2023-04-06T09:28:54;9.20;39.40
10911;DHT22;5508;49.150;11.030;2023-04-06T09:32:06;9.00;40.60
10911;DHT22;5508;49.150;11.030;2023-04-06T09:35:10;8.70;40.20
10911;DHT22;5508;49.150;11.030;2023-04-06T09:38:11;9.00;41.40
10911;DHT22;5508;49.150;11.030;2023-04-06T09:41:21;8.70;38.90
10911;DHT22;5508;49.150;11.030;2023-04-06T09:44:22;9.20;40.90
10911;DHT22;5508;49.150;11.030;2023-04-06T09:47:24;9.30;38.80
10911;DHT22;5508;49.150;11.030;2023-04-06T09:50:26;9.30;37.40
10911;DHT22;5508;49.150;11.030;2023-04-06T09:53:30;9.10;36.70
10911;DHT22;5508;49.150;11.030;2023-04-06T09:56:45;9.00;38.70
10911;DHT22;5508;49.150;11.030;2023-04-06T10:02:59;9.50;41.30
10911;DHT22;5508;49.150;11.030;2023-04-06T10:06:04;9.70;39.70
10911;DHT22;5508;49.150;11.030;2023-04-06T10:09:07;9.60;37.50
10911;DHT22;5508;49.150;11.030;2023-04-06T10:12:08;10.00;36.20
10911;DHT22;5508;49.150;11.030;2023-04-06T10:15:10;9.90;39.70
10911;DHT22;5508;49.150;11.030;2023-04-06T10:18:11;10.60;37.90
10911;DHT22;5508;49.150;11.030;2023-04-06T10:21:16;10.40;35.50
10911;DHT22;5508;49.150;11.030;2023-04-06T10:24:18;10.70;36.10
10911;DHT22;5508;49.150;11.030;2023-04-06T10:27:28;10.30;33.30
10911;DHT22;5508;49.150;11.030;2023-04-06T10:30:30;10.70;32.90
10911;DHT22;5508;49.150;11.030;2023-04-06T10:33:31;10.90;36.20
10911;DHT22;5508;49.150;11.030;2023-04-06T10:36:33;11.40;36.10
10911;DHT22;5508;49.150;11.030;2023-04-06T10:39:34;11.40;33.50
10911;DHT22;5508;49.150;11.030;2023-04-06T10:42:37;11.00;32.50
10911;DHT22;5508;49.150;11.030;2023-04-06T10:45:40;11.40;36.10
10911;DHT22;5508;49.150;11.030;2023-04-06T10:48:45;11.90;32.20
10911;DHT22;5508;49.150;11.030;2023-04-06T10:51:52;11.90;31.70
10911;DHT22;5508;49.150;11.030;2023-04-06T10:54:53;11.80;32.10
10911;DHT22;5508;49.150;11.030;2023-04-06T10:57:55;11.80;34.70
10911;DHT22;5508;49.150;11.030;2023-04-06T11:00:56;11.10;34.80
10911;DHT22;5508;49.150;11.030;2023-04-06T11:03:57;11.40;33.90
10911;DHT22;5508;49.150;11.030;2023-04-06T11:07:00;11.10;32.70
10911;DHT22;5508;49.150;11.030;2023-04-06T11:10:01;10.90;32.40
10911;DHT22;5508;49.150;11.030;2023-04-06T11:13:02;11.00;35.30
10911;DHT22;5508;49.150;11.030;2023-04-06T11:16:04;10.80;32.10
10911;DHT22;5508;49.150;11.030;2023-04-06T11:19:05;10.80;30.70
10911;DHT22;5508;49.150;11.030;2023-04-06T11:22:09;10.80;32.20
10911;DHT22;5508;49.150;11.030;2023-04-06T11:25:10;11.30;31.70
10911;DHT22;5508;49.150;11.030;2023-04-06T11:28:12;11.50;32.40
10911;DHT22;5508;49.150;11.030;2023-04-06T11:31:12;11.40;31.80
10911;DHT22;5508;49.150;11.030;2023-04-06T11:34:16;11.30;35.60
10911;DHT22;5508;49.150;11.030;2023-04-06T11:37:17;11.00;33.50
10911;DHT22;5508;49.150;11.030;2023-04-06T11:40:22;11.20;33.00
10911;DHT22;5508;49.150;11.030;2023-04-06T11:43:27;11.20;32.20
10911;DHT22;5508;49.150;11.030;2023-04-06T11:46:28;11.20;31.10
10911;DHT22;5508;49.150;11.030;2023-04-06T11:49:30;11.80;33.00
10911;DHT22;5508;49.150;11.030;2023-04-06T11:52:31;11.90;33.70
10911;DHT22;5508;49.150;11.030;2023-04-06T11:55:37;12.00;32.90
10911;DHT22;5508;49.150;11.030;2023-04-06T11:58:38;11.90;29.30
10911;DHT22;5508;49.150;11.030;2023-04-06T12:01:45;12.00;32.60
10911;DHT22;5508;49.150;11.030;2023-04-06T12:04:46;12.40;33.80
10911;DHT22;5508;49.150;11.030;2023-04-06T12:07:46;12.40;30.20
10911;DHT22;5508;49.150;11.030;2023-04-06T12:10:47;12.10;35.50
10911;DHT22;5508;49.150;11.030;2023-04-06T12:13:47;12.30;33.10
10911;DHT22;5508;49.150;11.030;2023-04-06T12:16:48;12.10;31.20
10911;DHT22;5508;49.150;11.030;2023-04-06T12:19:49;12.00;33.60
10911;DHT22;5508;49.150;11.030;2023-04-06T12:22:49;12.60;34.50
10911;DHT22;5508;49.150;11.030;2023-04-06T12:25:50;13.20;34.10
10911;DHT22;5508;49.150;11.030;2023-04-06T12:28:51;13.00;31.10
10911;DHT22;5508;49.150;11.030;2023-04-06T12:31:51;12.30;30.80
10911;DHT22;5508;49.150;11.030;2023-04-06T12:34:53;12.30;34.20
10911;DHT22;5508;49.150;11.030;2023-04-06T12:37:53;12.30;31.90
10911;DHT22;5508;49.150;11.030;2023-04-06T12:40:54;11.90;32.70
10911;DHT22;5508;49.150;11.030;2023-04-06T12:43:55;11.90;33.30
10911;DHT22;5508;49.150;11.030;2023-04-06T12:46:56;11.90;33.80
10911;DHT22;5508;49.150;11.030;2023-04-06T12:49:56;12.00;30.00
10911;DHT22;5508;49.150;11.030;2023-04-06T12:52:57;12.40;38.90
10911;DHT22;5508;49.150;11.030;2023-04-06T12:55:58;13.20;36.50
10911;DHT22;5508;49.150;11.030;2023-04-06T12:58:58;12.80;31.20
10911;DHT22;5508;49.150;11.030;2023-04-06T13:01:59;12.60;33.40
10911;DHT22;5508;49.150;11.030;2023-04-06T13:05:00;12.70;33.50
10911;DHT22;5508;49.150;11.030;2023-04-06T13:08:01;12.40;28.70
10911;DHT22;5508;49.150;11.030;2023-04-06T13:11:01;12.10;32.60
10911;DHT22;5508;49.150;11.030;2023-04-06T13:14:02;12.00;31.70
10911;DHT22;5508;49.150;11.030;2023-04-06T13:17:02;11.60;30.20
10911;DHT22;5508;49.150;11.030;2023-04-06T13:20:03;11.90;32.80
10911;DHT22;5508;49.150;11.030;2023-04-06T13:23:04;12.30;32.70
10911;DHT22;5508;49.150;11.030;2023-04-06T13:26:06;12.40;31.70
10911;DHT22;5508;49.150;11.030;2023-04-06T13:29:06;12.50;30.40
10911;DHT22;5508;49.150;11.030;2023-04-06T13:32:07;12.30;29.20
10911;DHT22;5508;49.150;11.030;2023-04-06T13:35:10;12.10;31.50
10911;DHT22;5508;49.150;11.030;2023-04-06T13:38:11;12.40;31.60
10911;DHT22;5508;49.150;11.030;2023-04-06T13:41:23;12.70;30.70
10911;DHT22;5508;49.150;11.030;2023-04-06T13:44:24;12.80;29.80
10911;DHT22;5508;49.150;11.030;2023-04-06T13:47:25;13.00;32.20
10911;DHT22;5508;49.150;11.030;2023-04-06T13:50:26;13.00;31.70
10911;DHT22;5508;49.150;11.030;2023-04-06T13:53:27;13.00;32.30
10911;DHT22;5508;49.150;11.030;2023-04-06T13:56:27;13.00;29.60
10911;DHT22;5508;49.150;11.030;2023-04-06T13:59:35;13.10;30.20
10911;DHT22;5508;49.150;11.030;2023-04-06T14:02:36;13.30;29.60
10911;DHT22;5508;49.150;11.030;2023-04-06T14:05:36;13.20;29.20
10911;DHT22;5508;49.150;11.030;2023-04-06T14:08:37;13.30;29.40
10911;DHT22;5508;49.150;11.030;2023-04-06T14:11:37;13.30;28.50
10911;DHT22;5508;49.150;11.030;2023-04-06T14:14:38;13.40;30.80
10911;DHT22;5508;49.150;11.030;2023-04-06T14:17:38;13.20;31.10
10911;DHT22;5508;49.150;11.030;2023-04-06T14:20:39;13.20;31.70
10911;DHT22;5508;49.150;11.030;2023-04-06T14:23:39;13.30;28.00
10911;DHT22;5508;49.150;11.030;2023-04-06T14:26:40;13.10;23.50
10911;DHT22;5508;49.150;11.030;2023-04-06T14:29:44;12.90;28.90
10911;DHT22;5508;49.150;11.030;2023-04-06T14:32:45;13.00;25.00
10911;DHT22;5508;49.150;11.030;2023-04-06T14:35:45;12.90;28.30
10911;DHT22;5508;49.150;11.030;2023-04-06T14:38:46;13.00;23.70
10911;DHT22;5508;49.150;11.030;2023-04-06T14:41:47;13.20;25.90
10911;DHT22;5508;49.150;11.030;2023-04-06T14:44:48;12.80;26.00
10911;DHT22;5508;49.150;11.030;2023-04-06T14:47:49;12.60;27.80
10911;DHT22;5508;49.150;11.030;2023-04-06T14:50:56;12.80;24.40
10911;DHT22;5508;49.150;11.030;2023-04-06T14:53:57;12.90;26.50
10911;DHT22;5508;49.150;11.030;2023-04-06T14:56:58;12.90;27.00
10911;DHT22;5508;49.150;11.030;2023-04-06T14:59:58;12.60;27.60
10911;DHT22;5508;49.150;11.030;2023-04-06T15:02:59;12.90;29.30
10911;DHT22;5508;49.150;11.030;2023-04-06T15:05:59;12.90;31.40
10911;DHT22;5508;49.150;11.030;2023-04-06T15:09:00;13.10;27.80
10911;DHT22;5508;49.150;11.030;2023-04-06T15:12:00;12.80;27.90
10911;DHT22;5508;49.150;11.030;2023-04-06T15:15:01;12.40;27.20
10911;DHT22;5508;49.150;11.030;2023-04-06T15:18:02;12.00;29.10
10911;DHT22;5508;49.150;11.030;2023-04-06T15:21:02;12.30;29.80
10911;DHT22;5508;49.150;11.030;2023-04-06T15:24:03;12.60;31.60
10911;DHT22;5508;49.150;11.030;2023-04-06T15:27:06;12.60;29.30
10911;DHT22;5508;49.150;11.030;2023-04-06T15:30:07;12.70;28.30
10911;DHT22;5508;49.150;11.030;2023-04-06T15:33:08;12.90;28.30
10911;DHT22;5508;49.150;11.030;2023-04-06T15:36:27;13.10;31.20
10911;DHT22;5508;49.150;11.030;2023-04-06T15:39:32;12.60;28.70
10911;DHT22;5508;49.150;11.030;2023-04-06T15:42:32;12.50;28.70
10911;DHT22;5508;49.150;11.030;2023-04-06T15:45:33;12.40;29.70
10911;DHT22;5508;49.150;11.030;2023-04-06T15:48:34;11.90;31.90
10911;DHT22;5508;49.150;11.030;2023-04-06T15:51:35;11.50;31.40
10911;DHT22;5508;49.150;11.030;2023-04-06T15:54:35;11.60;30.40
10911;DHT22;5508;49.150;11.030;2023-04-06T15:57:40;11.70;32.80
10911;DHT22;5508;49.150;11.030;2023-04-06T16:00:40;11.60;31.20
10911;DHT22;5508;49.150;11.030;2023-04-06T16:03:41;11.70;30.80
10911;DHT22;5508;49.150;11.030;2023-04-06T16:06:42;11.60;31.00
10911;DHT22;5508;49.150;11.030;2023-04-06T16:09:43;11.60;32.90
10911;DHT22;5508;49.150;11.030;2023-04-06T16:12:43;11.90;31.10
10911;DHT22;5508;49.150;11.030;2023-04-06T16:15:44;12.30;32.70
10911;DHT22;5508;49.150;11.030;2023-04-06T16:18:48;12.70;32.80
10911;DHT22;5508;49.150;11.030;2023-04-06T16:21:49;12.40;28.90
10911;DHT22;5508;49.150;11.030;2023-04-06T16:24:49;12.20;30.30
10911;DHT22;5508;49.150;11.030;2023-04-06T16:27:50;11.80;29.00
10911;DHT22;5508;49.150;11.030;2023-04-06T16:30:51;11.80;32.70
10911;DHT22;5508;49.150;11.030;2023-04-06T16:33:54;12.10;33.20
10911;DHT22;5508;49.150;11.030;2023-04-06T16:36:55;12.00;32.70
10911;DHT22;5508;49.150;11.030;2023-04-06T16:39:56;11.90;32.50
10911;DHT22;5508;49.150;11.030;2023-04-06T16:42:57;11.90;33.20
10911;DHT22;5508;49.150;11.030;2023-04-06T16:45:57;11.80;32.50
10911;DHT22;5508;49.150;11.030;2023-04-06T16:48:59;11.70;32.60
10911;DHT22;5508;49.150;11.030;2023-04-06T16:51:59;11.30;31.70
10911;DHT22;5508;49.150;11.030;2023-04-06T16:55:03;10.80;31.10
10911;DHT22;5508;49.150;11.030;2023-04-06T16:58:05;10.40;34.60
10911;DHT22;5508;49.150;11.030;2023-04-06T17:01:06;10.20;34.70
10911;DHT22;5508;49.150;11.030;2023-04-06T17:04:06;10.00;35.80
10911;DHT22;5508;49.150;11.030;2023-04-06T17:07:07;9.60;33.70
10911;DHT22;5508;49.150;11.030;2023-04-06T17:10:09;9.60;36.00
10911;DHT22;5508;49.150;11.030;2023-04-06T17:13:10;9.30;37.40
10911;DHT22;5508;49.150;11.030;2023-04-06T17:16:10;9.20;38.00
10911;DHT22;5508;49.150;11.030;2023-04-06T17:19:11;9.00;39.60
10911;DHT22;5508;49.150;11.030;2023-04-06T17:22:12;8.70;38.80
10911;DHT22;5508;49.150;11.030;2023-04-06T17:25:12;8.50;40.20
10911;DHT22;5508;49.150;11.030;2023-04-06T17:28:14;8.30;43.00
10911;DHT22;5508;49.150;11.030;2023-04-06T17:31:14;8.10;44.80
10911;DHT22;5508;49.150;11.030;2023-04-06T17:34:15;7.80;45.80
10911;DHT22;5508;49.150;11.030;2023-04-06T17:37:15;7.60;46.40
10911;DHT22;5508;49.150;11.030;2023-04-06T17:40:16;7.30;48.30
10911;DHT22;5508;49.150;11.030;2023-04-06T17:43:17;7.10;50.00
10911;DHT22;5508;49.150;11.030;2023-04-06T17:46:17;6.90;49.90
10911;DHT22;5508;49.150;11.030;2023-04-06T17:49:19;6.80;50.70
10911;DHT22;5508;49.150;11.030;2023-04-06T17:52:20;6.70;50.90
10911;DHT22;5508;49.150;11.030;2023-04-06T17:55:21;6.50;53.10
10911;DHT22;5508;49.150;11.030;2023-04-06T17:58:22;6.30;53.90
10911;DHT22;5508;49.150;11.030;2023-04-06T18:01:22;6.10;54.70
10911;DHT22;5508;49.150;11.030;2023-04-06T18:04:23;6.00;57.00
10911;DHT22;5508;49.150;11.030;2023-04-06T18:07:24;5.90;54.90
10911;DHT22;5508;49.150;11.030;2023-04-06T18:10:24;5.70;56.40
10911;DHT22;5508;49.150;11.030;2023-04-06T18:13:26;5.50;56.70
10911;DHT22;5508;49.150;11.030;2023-04-06T18:16:26;5.30;59.30
10911;DHT22;5508;49.150;11.030;2023-04-06T18:19:27;5.00;58.80
10911;DHT22;5508;49.150;11.030;2023-04-06T18:22:28;4.80;58.90
10911;DHT22;5508;49.150;11.030;2023-04-06T18:25:28;4.60;60.20
10911;DHT22;5508;49.150;11.030;2023-04-06T18:28:29;4.40;61.80
10911;DHT22;5508;49.150;11.030;2023-04-06T18:31:30;4.20;63.30
10911;DHT22;5508;49.150;11.030;2023-04-06T18:34:32;4.00;63.40
10911;DHT22;5508;49.150;11.030;2023-04-06T18:37:32;3.90;65.20
10911;DHT22;5508;49.150;11.030;2023-04-06T18:40:34;3.70;65.70
10911;DHT22;5508;49.150;11.030;2023-04-06T18:43:35;3.60;66.50
10911;DHT22;5508;49.150;11.030;2023-04-06T18:46:39;3.40;67.50
10911;DHT22;5508;49.150;11.030;2023-04-06T18:49:43;3.30;67.60
10911;DHT22;5508;49.150;11.030;2023-04-06T18:52:43;3.30;68.30
10911;DHT22;5508;49.150;11.030;2023-04-06T18:55:44;3.10;68.50
10911;DHT22;5508;49.150;11.030;2023-04-06T18:58:45;3.00;68.90
10911;DHT22;5508;49.150;11.030;2023-04-06T19:01:47;2.90;69.50
10911;DHT22;5508;49.150;11.030;2023-04-06T19:04:52;2.90;70.20
10911;DHT22;5508;49.150;11.030;2023-04-06T19:07:53;2.80;71.00
10911;DHT22;5508;49.150;11.030;2023-04-06T19:10:53;2.90;71.00
10911;DHT22;5508;49.150;11.030;2023-04-06T19:13:55;2.80;70.70